createdAt,value
2022-10-07T00:00:11.163Z,3.00
2022-10-07T00:00:43.618Z,2.77
2022-10-07T00:01:15.979Z,3.03
2022-10-07T00:01:48.263Z,3.00
2022-10-07T00:02:20.393Z,2.90
2022-10-07T00:02:52.380Z,3.10
2022-10-07T00:03:25.877Z,2.93
2022-10-07T00:03:57.833Z,2.57
2022-10-07T00:04:29.805Z,3.03
2022-10-07T00:05:01.800Z,3.13
2022-10-07T00:05:34.805Z,2.90
2022-10-07T00:06:08.201Z,2.77
2022-10-07T00:06:40.221Z,3.13
2022-10-07T00:07:13.156Z,3.08
2022-10-07T00:07:45.505Z,3.00
2022-10-07T00:08:17.997Z,3.13
2022-10-07T00:08:51.794Z,3.40
2022-10-07T00:09:23.776Z,2.60
2022-10-07T00:09:55.789Z,3.17
2022-10-07T00:10:27.857Z,3.00
2022-10-07T00:11:03.933Z,3.22
2022-10-07T00:11:35.882Z,3.20
2022-10-07T00:12:07.935Z,3.60
2022-10-07T00:12:40.542Z,2.97
2022-10-07T00:13:12.603Z,2.97
2022-10-07T00:13:45.412Z,3.10
2022-10-07T00:14:17.655Z,2.92
2022-10-07T00:14:49.687Z,3.33
2022-10-07T00:15:23.582Z,3.23
2022-10-07T00:16:02.539Z,2.50
2022-10-07T00:16:36.620Z,2.83
2022-10-07T00:17:08.615Z,2.83
2022-10-07T00:17:40.859Z,2.97
2022-10-07T00:18:12.965Z,2.80
2022-10-07T00:18:45.030Z,3.40
2022-10-07T00:19:16.986Z,2.97
2022-10-07T00:19:48.980Z,2.77
2022-10-07T00:20:20.987Z,2.90
2022-10-07T00:20:52.969Z,2.80
2022-10-07T00:21:26.043Z,3.17
2022-10-07T00:21:58.023Z,3.57
2022-10-07T00:22:31.008Z,3.17
2022-10-07T00:23:02.976Z,2.80
2022-10-07T00:23:35.128Z,3.00
2022-10-07T00:24:07.800Z,2.93
2022-10-07T00:24:39.803Z,3.00
2022-10-07T00:25:11.765Z,3.27
2022-10-07T00:25:43.792Z,3.00
2022-10-07T00:26:17.615Z,3.80
2022-10-07T00:26:49.617Z,2.67
2022-10-07T00:27:21.646Z,3.30
2022-10-07T00:27:53.658Z,2.70
2022-10-07T00:28:26.967Z,2.90
2022-10-07T00:28:59.086Z,3.07
2022-10-07T00:29:31.314Z,3.77
2022-10-07T00:30:03.428Z,3.17
2022-10-07T00:30:35.495Z,2.87
2022-10-07T00:31:09.305Z,2.93
2022-10-07T00:31:41.783Z,2.87
2022-10-07T00:32:13.790Z,2.97
2022-10-07T00:32:45.787Z,3.27
2022-10-07T00:33:17.799Z,3.47
2022-10-07T00:33:50.303Z,2.77
2022-10-07T00:34:22.249Z,3.67
2022-10-07T00:34:54.476Z,3.23
2022-10-07T00:35:26.536Z,3.33
2022-10-07T00:35:58.655Z,3.10
2022-10-07T00:36:32.770Z,3.27
2022-10-07T00:37:04.810Z,2.95
2022-10-07T00:37:42.894Z,3.30
2022-10-07T00:38:16.209Z,3.47
2022-10-07T00:38:56.204Z,3.20
2022-10-07T00:39:28.326Z,3.13
2022-10-07T00:40:00.339Z,3.00
2022-10-07T00:40:32.917Z,2.97
2022-10-07T00:41:05.470Z,2.80
2022-10-07T00:41:50.833Z,2.90
2022-10-07T00:42:22.980Z,2.87
2022-10-07T00:42:55.026Z,2.97
2022-10-07T00:43:31.590Z,3.07
2022-10-07T00:44:33.298Z,3.37
2022-10-07T00:45:06.681Z,3.00
2022-10-07T00:45:38.700Z,3.10
2022-10-07T00:46:29.447Z,3.60
2022-10-07T00:47:07.405Z,3.23
2022-10-07T00:47:40.347Z,3.27
2022-10-07T00:48:16.007Z,2.87
2022-10-07T00:48:48.513Z,3.23
2022-10-07T00:49:20.808Z,3.80
2022-10-07T00:49:52.819Z,3.80
2022-10-07T00:50:26.988Z,3.50
2022-10-07T00:51:00.417Z,3.10
2022-10-07T00:51:34.089Z,2.90
2022-10-07T00:52:06.899Z,2.80
2022-10-07T00:52:40.999Z,2.90
2022-10-07T00:53:13.089Z,2.63
2022-10-07T00:53:47.835Z,3.27
2022-10-07T00:54:20.146Z,3.10
2022-10-07T00:54:53.364Z,2.87
2022-10-07T00:55:26.928Z,3.23
2022-10-07T00:56:03.171Z,3.10
2022-10-07T00:56:35.344Z,3.40
2022-10-07T00:57:07.556Z,2.80
2022-10-07T00:57:40.269Z,3.27
2022-10-07T00:58:12.675Z,3.40
2022-10-07T00:58:45.881Z,2.73
2022-10-07T00:59:18.609Z,3.10
2022-10-07T00:59:51.958Z,2.60
2022-10-07T01:00:24.217Z,2.80
2022-10-07T01:00:57.281Z,3.17
2022-10-07T01:01:30.388Z,3.27
2022-10-07T01:02:02.453Z,3.22
2022-10-07T01:02:34.875Z,3.33
2022-10-07T01:03:08.766Z,3.60
2022-10-07T01:03:40.867Z,2.80
2022-10-07T01:04:14.905Z,2.83
2022-10-07T01:04:48.694Z,2.60
2022-10-07T01:05:20.707Z,3.17
2022-10-07T01:05:52.695Z,3.30
2022-10-07T01:06:24.733Z,2.73
2022-10-07T01:06:57.007Z,2.63
2022-10-07T01:07:29.237Z,3.57
2022-10-07T01:08:01.247Z,3.23
2022-10-07T01:08:33.811Z,3.10
2022-10-07T01:09:07.494Z,3.80
2022-10-07T01:09:39.539Z,3.17
2022-10-07T01:10:12.059Z,2.93
2022-10-07T01:11:13.941Z,2.43
2022-10-07T01:11:50.903Z,3.00
2022-10-07T01:12:34.171Z,3.50
2022-10-07T01:13:16.588Z,3.40
2022-10-07T01:13:59.401Z,3.37
2022-10-07T01:14:34.345Z,2.70
2022-10-07T01:15:13.519Z,3.07
2022-10-07T01:15:48.305Z,3.17
2022-10-07T01:16:26.497Z,3.50
2022-10-07T01:17:07.982Z,3.27
2022-10-07T01:17:55.780Z,3.07
2022-10-07T01:18:37.041Z,3.27
2022-10-07T01:19:09.742Z,3.17
2022-10-07T01:19:58.030Z,2.87
2022-10-07T01:20:35.885Z,3.80
2022-10-07T01:21:20.118Z,3.13
2022-10-07T01:22:05.399Z,3.60
2022-10-07T01:22:55.973Z,3.43
2022-10-07T01:23:36.394Z,3.10
2022-10-07T01:24:13.134Z,3.10
2022-10-07T01:24:52.129Z,3.67
2022-10-07T01:25:42.708Z,3.57
2022-10-07T01:26:14.674Z,3.03
2022-10-07T01:26:57.332Z,3.10
2022-10-07T01:27:29.619Z,3.17
2022-10-07T01:28:08.950Z,3.23
2022-10-07T01:28:42.643Z,3.50
2022-10-07T01:29:22.760Z,2.83
2022-10-07T01:30:01.314Z,3.10
2022-10-07T01:30:36.510Z,3.40
2022-10-07T01:31:10.330Z,3.17
2022-10-07T01:31:46.292Z,3.30
2022-10-07T01:32:24.588Z,3.30
2022-10-07T01:32:59.218Z,3.20
2022-10-07T01:33:33.760Z,3.13
2022-10-07T01:34:07.176Z,3.13
2022-10-07T01:34:39.712Z,3.47
2022-10-07T01:35:13.827Z,3.33
2022-10-07T01:35:47.289Z,3.50
2022-10-07T01:36:21.426Z,2.90
2022-10-07T01:36:54.742Z,2.73
2022-10-07T01:37:29.843Z,3.43
2022-10-07T01:38:05.562Z,3.07
2022-10-07T01:38:40.002Z,2.87
2022-10-07T01:39:13.763Z,3.00
2022-10-07T01:39:48.375Z,3.57
2022-10-07T01:40:23.473Z,3.13
2022-10-07T01:41:04.445Z,3.00
2022-10-07T01:41:37.502Z,3.13
2022-10-07T01:42:09.604Z,2.77
2022-10-07T01:42:41.577Z,3.63
2022-10-07T01:43:15.631Z,3.53
2022-10-07T01:43:48.459Z,3.60
2022-10-07T01:44:20.487Z,3.40
2022-10-07T01:44:53.749Z,2.80
2022-10-07T01:45:28.376Z,3.23
2022-10-07T01:46:00.974Z,3.17
2022-10-07T01:46:37.747Z,3.57
2022-10-07T01:47:09.810Z,3.30
2022-10-07T01:47:42.480Z,3.10
2022-10-07T01:48:15.233Z,3.17
2022-10-07T01:48:47.459Z,2.73
2022-10-07T01:49:20.255Z,3.10
2022-10-07T01:49:52.371Z,3.00
2022-10-07T01:50:26.098Z,3.00
2022-10-07T01:51:00.433Z,3.20
2022-10-07T01:51:35.564Z,3.90
2022-10-07T01:52:33.559Z,3.57
2022-10-07T01:53:44.391Z,3.57
2022-10-07T01:54:27.500Z,3.07
2022-10-07T01:55:11.909Z,2.83
2022-10-07T01:55:43.913Z,3.03
2022-10-07T01:56:24.499Z,2.80
2022-10-07T01:57:14.681Z,2.80
2022-10-07T01:58:00.788Z,3.60
2022-10-07T01:58:41.418Z,3.27
2022-10-07T01:59:27.307Z,3.03
2022-10-07T02:00:02.595Z,3.88
2022-10-07T02:00:53.931Z,3.50
2022-10-07T02:01:44.395Z,3.10
2022-10-07T02:02:29.709Z,3.20
2022-10-07T02:03:01.643Z,3.30
2022-10-07T02:03:33.928Z,3.37
2022-10-07T02:04:15.623Z,4.53
2022-10-07T02:04:57.031Z,3.40
2022-10-07T02:05:39.538Z,3.00
2022-10-07T02:06:33.258Z,2.87
2022-10-07T02:07:09.531Z,3.00
2022-10-07T02:07:55.647Z,3.37
2022-10-07T02:08:40.566Z,2.93
2022-10-07T02:09:20.679Z,3.20
2022-10-07T02:10:02.794Z,3.30
2022-10-07T02:10:34.764Z,2.93
2022-10-07T02:11:20.569Z,3.93
2022-10-07T02:11:58.361Z,3.10
2022-10-07T02:12:38.448Z,2.60
2022-10-07T02:13:25.334Z,4.00
2022-10-07T02:14:08.392Z,3.87
2022-10-07T02:14:56.580Z,2.80
2022-10-07T02:15:34.205Z,2.93
2022-10-07T02:16:17.431Z,2.90
2022-10-07T02:16:57.860Z,3.70
2022-10-07T02:17:33.305Z,3.30
2022-10-07T02:18:08.324Z,3.40
2022-10-07T02:18:41.570Z,2.83
2022-10-07T02:19:21.206Z,3.30
2022-10-07T02:19:54.390Z,3.50
2022-10-07T02:20:28.444Z,3.63
2022-10-07T02:21:02.196Z,2.80
2022-10-07T02:21:36.893Z,3.37
2022-10-07T02:22:09.273Z,3.00
2022-10-07T02:22:42.638Z,2.97
2022-10-07T02:23:16.186Z,3.10
2022-10-07T02:23:49.000Z,3.07
2022-10-07T02:24:22.299Z,3.00
2022-10-07T02:24:55.460Z,2.83
2022-10-07T02:25:28.275Z,3.43
2022-10-07T02:26:03.069Z,3.47
2022-10-07T02:26:36.044Z,3.30
2022-10-07T02:27:11.001Z,3.33
2022-10-07T02:27:45.111Z,3.33
2022-10-07T02:28:19.743Z,2.87
2022-10-07T02:28:53.129Z,3.67
2022-10-07T02:29:26.537Z,3.40
2022-10-07T02:30:03.485Z,3.20
2022-10-07T02:30:37.770Z,3.00
2022-10-07T02:31:10.783Z,3.00
2022-10-07T02:31:44.275Z,3.60
2022-10-07T02:32:19.195Z,3.20
2022-10-07T02:32:55.032Z,3.20
2022-10-07T02:33:29.401Z,3.57
2022-10-07T02:34:04.196Z,3.33
2022-10-07T02:34:37.035Z,2.77
2022-10-07T02:35:14.684Z,3.30
2022-10-07T02:35:51.128Z,2.77
2022-10-07T02:36:29.068Z,3.23
2022-10-07T02:37:03.287Z,3.57
2022-10-07T02:37:38.199Z,3.20
2022-10-07T02:38:12.915Z,2.87
2022-10-07T02:38:45.108Z,3.40
2022-10-07T02:39:17.787Z,3.20
2022-10-07T02:39:49.808Z,3.37
2022-10-07T02:40:22.616Z,3.73
2022-10-07T02:40:57.232Z,3.50
2022-10-07T02:41:40.250Z,3.40
2022-10-07T02:42:24.109Z,3.23
2022-10-07T02:42:58.565Z,3.13
2022-10-07T02:43:36.544Z,2.43
2022-10-07T02:44:14.699Z,3.20
2022-10-07T02:44:49.430Z,3.50
2022-10-07T02:45:32.023Z,3.73
2022-10-07T02:46:09.331Z,3.60
2022-10-07T02:46:51.535Z,3.30
2022-10-07T02:47:34.028Z,3.27
2022-10-07T02:48:18.215Z,2.70
2022-10-07T02:48:57.485Z,3.53
2022-10-07T02:49:30.276Z,3.70
2022-10-07T02:50:04.851Z,3.20
2022-10-07T02:50:39.910Z,3.40
2022-10-07T02:51:20.959Z,3.30
2022-10-07T02:52:02.657Z,3.10
2022-10-07T02:52:37.080Z,3.37
2022-10-07T02:53:10.131Z,3.50
2022-10-07T02:53:42.473Z,2.87
2022-10-07T02:54:17.387Z,4.03
2022-10-07T02:54:59.439Z,3.23
2022-10-07T02:55:33.613Z,3.20
2022-10-07T02:56:06.533Z,3.57
2022-10-07T02:56:40.100Z,3.07
2022-10-07T02:57:13.815Z,3.27
2022-10-07T02:57:48.338Z,2.90
2022-10-07T02:58:22.315Z,3.00
2022-10-07T02:58:54.885Z,3.00
2022-10-07T02:59:27.411Z,3.50
2022-10-07T03:00:01.075Z,3.13
2022-10-07T03:00:39.290Z,3.40
2022-10-07T03:01:17.456Z,2.83
2022-10-07T03:01:52.466Z,3.10
2022-10-07T03:02:32.272Z,3.53
2022-10-07T03:03:04.988Z,3.40
2022-10-07T03:03:57.514Z,3.13
2022-10-07T03:04:29.697Z,3.23
2022-10-07T03:05:02.629Z,2.97
2022-10-07T03:05:35.263Z,3.07
2022-10-07T03:06:08.958Z,3.20
2022-10-07T03:06:44.634Z,3.60
2022-10-07T03:07:17.089Z,3.43
2022-10-07T03:07:51.195Z,3.37
2022-10-07T03:08:23.171Z,3.30
2022-10-07T03:08:57.979Z,2.90
2022-10-07T03:09:31.139Z,3.67
2022-10-07T03:10:04.087Z,3.10
2022-10-07T03:10:36.816Z,3.73
2022-10-07T03:11:08.892Z,3.27
2022-10-07T03:11:40.980Z,3.70
2022-10-07T03:12:13.575Z,3.20
2022-10-07T03:12:45.603Z,2.70
2022-10-07T03:13:17.897Z,3.37
2022-10-07T03:13:55.041Z,3.93
2022-10-07T03:14:27.060Z,3.10
2022-10-07T03:14:59.234Z,3.30
2022-10-07T03:15:32.758Z,3.20
2022-10-07T03:16:05.814Z,3.60
2022-10-07T03:16:38.111Z,3.07
2022-10-07T03:17:10.320Z,3.67
2022-10-07T03:17:42.588Z,3.70
2022-10-07T03:18:27.349Z,2.90
2022-10-07T03:19:18.167Z,3.67
2022-10-07T03:20:08.907Z,3.40
2022-10-07T03:20:40.857Z,3.17
2022-10-07T03:21:12.861Z,3.10
2022-10-07T03:21:45.955Z,3.13
2022-10-07T03:22:18.602Z,3.30
2022-10-07T03:22:50.924Z,3.20
2022-10-07T03:23:24.689Z,3.57
2022-10-07T03:23:57.199Z,3.43
2022-10-07T03:24:33.899Z,3.30
2022-10-07T03:25:05.984Z,2.93
2022-10-07T03:25:38.018Z,3.17
2022-10-07T03:26:10.050Z,3.50
2022-10-07T03:26:42.151Z,3.47
2022-10-07T03:27:14.192Z,3.40
2022-10-07T03:27:48.482Z,3.23
2022-10-07T03:28:21.885Z,2.83
2022-10-07T03:28:55.209Z,3.00
2022-10-07T03:29:27.696Z,3.17
2022-10-07T03:29:59.772Z,3.77
2022-10-07T03:30:31.833Z,3.63
2022-10-07T03:31:08.165Z,3.23
2022-10-07T03:31:42.818Z,2.87
2022-10-07T03:32:15.234Z,3.60
2022-10-07T03:32:48.197Z,3.40
2022-10-07T03:33:21.384Z,3.07
2022-10-07T03:33:55.349Z,3.13
2022-10-07T03:34:27.725Z,3.67
2022-10-07T03:35:00.652Z,3.30
2022-10-07T03:35:32.661Z,2.80
2022-10-07T03:36:05.824Z,2.77
2022-10-07T03:36:39.227Z,3.17
2022-10-07T03:37:12.862Z,2.87
2022-10-07T03:37:45.103Z,2.57
2022-10-07T03:38:17.368Z,3.10
2022-10-07T03:38:50.093Z,3.07
2022-10-07T03:39:22.104Z,3.00
2022-10-07T03:39:54.072Z,2.87
2022-10-07T03:40:26.070Z,3.40
2022-10-07T03:40:58.260Z,2.87
2022-10-07T03:41:30.200Z,3.70
2022-10-07T03:42:05.370Z,3.93
2022-10-07T03:42:38.683Z,3.20
2022-10-07T03:43:10.803Z,3.70
2022-10-07T03:43:43.284Z,2.90
2022-10-07T03:44:19.326Z,2.90
2022-10-07T03:44:52.228Z,3.00
2022-10-07T03:45:25.544Z,2.90
2022-10-07T03:45:58.401Z,3.33
2022-10-07T03:46:30.509Z,3.23
2022-10-07T03:47:07.593Z,2.60
2022-10-07T03:47:43.016Z,3.13
2022-10-07T03:48:15.913Z,2.87
2022-10-07T03:48:47.954Z,2.80
2022-10-07T03:49:20.238Z,2.63
2022-10-07T03:49:52.313Z,3.07
2022-10-07T03:50:25.197Z,2.90
2022-10-07T03:50:57.714Z,3.13
2022-10-07T03:51:32.272Z,2.50
2022-10-07T03:52:06.222Z,3.10
2022-10-07T03:52:38.266Z,2.97
2022-10-07T03:53:10.468Z,3.20
2022-10-07T03:53:42.507Z,3.53
2022-10-07T03:54:14.661Z,2.47
2022-10-07T03:54:46.742Z,3.03
2022-10-07T03:55:19.444Z,2.90
2022-10-07T03:55:51.469Z,2.67
2022-10-07T03:56:23.739Z,3.23
2022-10-07T03:56:55.763Z,2.67
2022-10-07T03:57:46.698Z,2.80
2022-10-07T03:58:19.366Z,2.83
2022-10-07T03:58:52.694Z,2.67
2022-10-07T03:59:24.680Z,3.43
2022-10-07T03:59:56.646Z,2.60
2022-10-07T04:00:28.790Z,2.90
2022-10-07T04:01:06.270Z,3.40
2022-10-07T04:01:39.834Z,3.60
2022-10-07T04:02:11.969Z,3.17
2022-10-07T04:02:44.320Z,2.60
2022-10-07T04:03:16.386Z,2.67
2022-10-07T04:03:48.442Z,2.30
2022-10-07T04:04:20.560Z,3.20
2022-10-07T04:04:53.305Z,2.80
2022-10-07T04:05:27.729Z,3.50
2022-10-07T04:06:01.432Z,2.60
2022-10-07T04:06:35.488Z,2.80
2022-10-07T04:07:11.163Z,3.30
2022-10-07T04:07:47.755Z,2.40
2022-10-07T04:08:20.815Z,3.00
2022-10-07T04:08:53.330Z,3.10
2022-10-07T04:09:25.387Z,2.70
2022-10-07T04:09:57.378Z,2.77
2022-10-07T04:10:30.337Z,2.83
2022-10-07T04:11:03.135Z,3.00
2022-10-07T04:11:36.078Z,3.03
2022-10-07T04:12:08.185Z,2.97
2022-10-07T04:12:40.254Z,2.80
2022-10-07T04:13:12.335Z,3.00
2022-10-07T04:13:45.925Z,2.83
2022-10-07T04:14:18.055Z,2.97
2022-10-07T04:14:50.512Z,3.43
2022-10-07T04:15:23.015Z,3.00
2022-10-07T04:15:55.394Z,3.10
2022-10-07T04:16:28.448Z,3.50
2022-10-07T04:17:01.727Z,3.30
2022-10-07T04:17:33.835Z,3.20
2022-10-07T04:18:05.896Z,3.67
2022-10-07T04:18:37.840Z,2.80
2022-10-07T04:19:10.140Z,3.10
2022-10-07T04:19:42.119Z,3.20
2022-10-07T04:20:14.903Z,3.30
2022-10-07T04:20:48.029Z,3.33
2022-10-07T04:21:20.091Z,3.17
2022-10-07T04:21:52.869Z,3.57
2022-10-07T04:22:25.202Z,3.23
2022-10-07T04:22:57.198Z,3.03
2022-10-07T04:23:29.199Z,3.50
2022-10-07T04:24:01.295Z,3.30
2022-10-07T04:24:33.378Z,3.00
2022-10-07T04:25:24.507Z,3.63
2022-10-07T04:25:56.576Z,3.13
2022-10-07T04:26:28.598Z,3.00
2022-10-07T04:27:01.154Z,3.43
2022-10-07T04:27:58.354Z,3.10
2022-10-07T04:28:27.118Z,3.27
2022-10-07T04:29:08.358Z,3.47
2022-10-07T04:29:40.675Z,3.40
2022-10-07T04:30:12.952Z,3.20
2022-10-07T04:30:45.431Z,3.20
2022-10-07T04:31:19.331Z,3.50
2022-10-07T04:31:57.571Z,3.20
2022-10-07T04:32:30.785Z,3.30
2022-10-07T04:33:02.923Z,3.00
2022-10-07T04:33:38.762Z,2.70
2022-10-07T04:34:10.772Z,2.93
2022-10-07T04:34:46.123Z,3.37
2022-10-07T04:35:18.769Z,3.53
2022-10-07T04:35:50.954Z,3.50
2022-10-07T04:36:24.958Z,3.23
2022-10-07T04:37:07.135Z,3.43
2022-10-07T04:37:39.342Z,3.70
2022-10-07T04:38:12.003Z,3.47
2022-10-07T04:38:50.341Z,3.70
2022-10-07T04:39:42.720Z,3.57
2022-10-07T04:40:19.337Z,3.30
2022-10-07T04:40:51.976Z,3.73
2022-10-07T04:41:26.032Z,3.53
2022-10-07T04:41:58.251Z,3.77
2022-10-07T04:42:54.121Z,3.37
2022-10-07T04:43:33.847Z,3.33
2022-10-07T04:44:13.108Z,3.33
2022-10-07T04:44:53.197Z,3.70
2022-10-07T04:45:25.231Z,2.97
2022-10-07T04:46:01.171Z,3.80
2022-10-07T04:46:33.371Z,3.67
2022-10-07T04:47:10.668Z,3.70
2022-10-07T04:47:47.184Z,4.00
2022-10-07T04:48:20.980Z,3.60
2022-10-07T04:48:53.037Z,4.20
2022-10-07T04:49:29.022Z,3.43
2022-10-07T04:50:03.734Z,3.70
2022-10-07T04:50:38.696Z,3.37
2022-10-07T04:51:12.744Z,3.27
2022-10-07T04:51:47.383Z,3.60
2022-10-07T04:52:20.717Z,3.87
2022-10-07T04:52:53.984Z,4.00
2022-10-07T04:53:25.953Z,3.50
2022-10-07T04:53:58.105Z,3.70
2022-10-07T04:54:35.373Z,4.07
2022-10-07T04:55:07.724Z,4.13
2022-10-07T04:55:40.751Z,4.17
2022-10-07T04:56:13.457Z,4.27
2022-10-07T04:56:48.434Z,3.73
2022-10-07T04:57:20.621Z,3.80
2022-10-07T04:57:53.948Z,3.60
2022-10-07T04:58:26.988Z,3.17
2022-10-07T04:58:59.316Z,3.20
2022-10-07T04:59:31.778Z,3.80
2022-10-07T05:00:05.763Z,3.87
2022-10-07T05:00:45.793Z,3.57
2022-10-07T05:01:18.083Z,3.83
2022-10-07T05:01:52.444Z,3.27
2022-10-07T05:02:24.686Z,3.97
2022-10-07T05:02:56.858Z,3.60
2022-10-07T05:03:29.653Z,3.80
2022-10-07T05:04:01.649Z,3.60
2022-10-07T05:04:34.213Z,3.50
2022-10-07T05:05:07.614Z,3.63
2022-10-07T05:05:43.495Z,3.20
2022-10-07T05:06:16.854Z,3.50
2022-10-07T05:06:49.281Z,3.70
2022-10-07T05:07:21.287Z,3.30
2022-10-07T05:07:54.443Z,3.50
2022-10-07T05:08:27.233Z,3.00
2022-10-07T05:09:00.015Z,2.97
2022-10-07T05:09:32.278Z,3.57
2022-10-07T05:10:05.533Z,3.73
2022-10-07T05:10:38.285Z,3.50
2022-10-07T05:11:10.304Z,3.40
2022-10-07T05:11:51.900Z,3.73
2022-10-07T05:12:26.584Z,3.10
2022-10-07T05:12:58.846Z,3.07
2022-10-07T05:13:30.987Z,3.37
2022-10-07T05:14:03.383Z,3.63
2022-10-07T05:14:36.917Z,3.17
2022-10-07T05:15:10.280Z,3.10
2022-10-07T05:15:52.595Z,3.30
2022-10-07T05:16:24.813Z,3.20
2022-10-07T05:16:56.975Z,3.47
2022-10-07T05:17:32.837Z,3.27
2022-10-07T05:18:06.441Z,3.63
2022-10-07T05:18:39.350Z,3.20
2022-10-07T05:19:15.309Z,2.90
2022-10-07T05:19:47.589Z,3.27
2022-10-07T05:20:19.510Z,3.03
2022-10-07T05:20:52.559Z,3.47
2022-10-07T05:21:25.127Z,3.23
2022-10-07T05:21:57.585Z,3.03
2022-10-07T05:22:31.643Z,3.47
2022-10-07T05:23:03.768Z,3.63
2022-10-07T05:23:37.176Z,3.27
2022-10-07T05:24:11.981Z,3.10
2022-10-07T05:24:44.745Z,2.70
2022-10-07T05:25:16.859Z,3.33
2022-10-07T05:25:56.585Z,3.47
2022-10-07T05:26:28.663Z,3.60
2022-10-07T05:27:03.781Z,3.97
2022-10-07T05:27:35.840Z,3.43
2022-10-07T05:28:08.003Z,3.40
2022-10-07T05:28:40.472Z,3.37
2022-10-07T05:29:14.645Z,3.00
2022-10-07T05:29:50.231Z,3.07
2022-10-07T05:30:22.289Z,2.80
2022-10-07T05:31:05.754Z,2.93
2022-10-07T05:31:38.259Z,3.00
2022-10-07T05:32:11.489Z,3.20
2022-10-07T05:32:44.059Z,3.33
2022-10-07T05:33:16.387Z,2.60
2022-10-07T05:33:49.747Z,3.50
2022-10-07T05:34:23.257Z,3.37
2022-10-07T05:34:55.262Z,2.97
2022-10-07T05:35:27.261Z,3.00
2022-10-07T05:35:59.539Z,2.53
2022-10-07T05:36:31.712Z,3.00
2022-10-07T05:37:05.368Z,2.60
2022-10-07T05:37:37.340Z,3.13
2022-10-07T05:38:09.843Z,2.53
2022-10-07T05:38:41.845Z,2.73
2022-10-07T05:39:14.605Z,2.73
2022-10-07T05:39:59.295Z,2.60
2022-10-07T05:40:31.396Z,2.60
2022-10-07T05:41:05.024Z,2.47
2022-10-07T05:41:45.323Z,3.00
2022-10-07T05:42:19.812Z,2.30
2022-10-07T05:43:01.278Z,2.53
2022-10-07T05:43:35.678Z,2.50
2022-10-07T05:44:10.344Z,2.77
2022-10-07T05:44:42.475Z,2.23
2022-10-07T05:45:15.648Z,2.40
2022-10-07T05:45:48.079Z,2.77
2022-10-07T05:46:20.587Z,2.70
2022-10-07T05:46:57.071Z,2.30
2022-10-07T05:47:29.526Z,2.70
2022-10-07T05:48:01.639Z,2.67
2022-10-07T05:48:39.007Z,2.00
2022-10-07T05:49:12.449Z,2.30
2022-10-07T05:49:45.573Z,2.70
2022-10-07T05:50:18.342Z,2.20
2022-10-07T05:50:50.297Z,2.53
2022-10-07T05:51:22.973Z,3.00
2022-10-07T05:51:55.385Z,2.40
2022-10-07T05:52:28.368Z,2.87
2022-10-07T05:53:00.725Z,2.40
2022-10-07T05:53:32.844Z,2.33
2022-10-07T05:54:05.394Z,2.57
2022-10-07T05:54:42.199Z,2.30
2022-10-07T05:55:16.735Z,2.23
2022-10-07T05:55:49.247Z,2.57
2022-10-07T05:56:24.166Z,2.70
2022-10-07T05:56:57.679Z,2.20
2022-10-07T05:57:30.343Z,2.40
2022-10-07T05:58:03.346Z,2.43
2022-10-07T05:58:38.939Z,2.20
2022-10-07T05:59:12.622Z,2.77
2022-10-07T05:59:46.289Z,2.60
2022-10-07T06:00:19.196Z,2.27
2022-10-07T06:00:59.940Z,2.47
2022-10-07T06:01:34.494Z,2.57
2022-10-07T06:02:16.229Z,2.43
2022-10-07T06:02:51.488Z,2.40
2022-10-07T06:03:25.470Z,2.30
2022-10-07T06:03:58.564Z,2.37
2022-10-07T06:04:33.535Z,2.77
2022-10-07T06:05:06.580Z,2.97
2022-10-07T06:05:39.056Z,2.77
2022-10-07T06:06:11.092Z,2.60
2022-10-07T06:06:43.433Z,2.77
2022-10-07T06:07:20.959Z,2.60
2022-10-07T06:07:55.878Z,2.70
2022-10-07T06:08:27.947Z,2.53
2022-10-07T06:09:21.183Z,2.57
2022-10-07T06:10:12.554Z,2.43
2022-10-07T06:11:04.304Z,2.47
2022-10-07T06:11:55.686Z,2.50
2022-10-07T06:12:46.570Z,2.43
2022-10-07T06:13:19.812Z,2.53
2022-10-07T06:13:53.338Z,2.87
2022-10-07T06:14:25.310Z,2.80
2022-10-07T06:14:57.418Z,2.50
2022-10-07T06:15:30.340Z,2.37
2022-10-07T06:16:02.327Z,2.30
2022-10-07T06:16:34.417Z,2.80
2022-10-07T06:17:06.901Z,2.10
2022-10-07T06:17:45.679Z,2.70
2022-10-07T06:18:20.453Z,2.23
2022-10-07T06:18:53.179Z,2.47
2022-10-07T06:19:27.771Z,2.27
2022-10-07T06:20:03.770Z,2.37
2022-10-07T06:20:35.757Z,2.40
2022-10-07T06:21:08.516Z,2.40
2022-10-07T06:21:41.049Z,2.83
2022-10-07T06:22:13.100Z,2.20
2022-10-07T06:22:47.926Z,2.40
2022-10-07T06:23:21.469Z,2.20
2022-10-07T06:23:53.968Z,2.03
2022-10-07T06:24:29.150Z,2.20
2022-10-07T06:25:02.497Z,2.60
2022-10-07T06:25:36.247Z,2.20
2022-10-07T06:26:09.581Z,2.40
2022-10-07T06:26:42.291Z,2.60
2022-10-07T06:27:14.540Z,2.50
2022-10-07T06:27:51.281Z,2.10
2022-10-07T06:28:26.183Z,2.83
2022-10-07T06:28:58.312Z,2.10
2022-10-07T06:29:30.283Z,1.97
2022-10-07T06:30:03.020Z,2.00
2022-10-07T06:30:37.441Z,2.50
2022-10-07T06:31:10.467Z,2.90
2022-10-07T06:31:42.493Z,2.23
2022-10-07T06:32:14.484Z,2.10
2022-10-07T06:32:46.743Z,2.30
2022-10-07T06:33:19.109Z,2.10
2022-10-07T06:33:51.572Z,1.80
2022-10-07T06:34:23.598Z,2.43
2022-10-07T06:34:56.109Z,2.73
2022-10-07T06:35:28.159Z,2.37
2022-10-07T06:36:07.922Z,2.90
2022-10-07T06:36:40.030Z,2.37
2022-10-07T06:37:12.041Z,2.73
2022-10-07T06:37:44.631Z,2.20
2022-10-07T06:38:17.150Z,2.00
2022-10-07T06:38:50.387Z,2.20
2022-10-07T06:39:24.611Z,2.10
2022-10-07T06:39:59.575Z,2.50
2022-10-07T06:40:33.578Z,2.40
2022-10-07T06:41:05.905Z,2.63
2022-10-07T06:41:39.197Z,2.10
2022-10-07T06:42:28.873Z,2.50
2022-10-07T06:43:19.607Z,2.20
2022-10-07T06:43:58.038Z,2.00
2022-10-07T06:44:31.465Z,2.23
2022-10-07T06:45:04.064Z,1.73
2022-10-07T06:45:36.457Z,1.97
2022-10-07T06:46:10.119Z,2.40
2022-10-07T06:46:43.964Z,1.90
2022-10-07T06:47:16.072Z,2.13
2022-10-07T06:47:49.909Z,2.23
2022-10-07T06:48:23.084Z,2.33
2022-10-07T06:48:55.089Z,2.43
2022-10-07T06:49:27.103Z,2.27
2022-10-07T06:49:59.594Z,2.10
2022-10-07T06:50:31.609Z,2.23
2022-10-07T06:51:04.011Z,2.43
2022-10-07T06:51:37.764Z,2.60
2022-10-07T06:52:09.978Z,2.97
2022-10-07T06:52:43.555Z,2.73
2022-10-07T06:53:16.141Z,2.00
2022-10-07T06:53:51.582Z,2.53
2022-10-07T06:54:24.716Z,1.97
2022-10-07T06:54:57.813Z,2.77
2022-10-07T06:55:29.866Z,2.20
2022-10-07T06:56:02.601Z,2.17
2022-10-07T06:56:39.060Z,2.10
2022-10-07T06:57:40.268Z,2.47
2022-10-07T06:58:09.163Z,2.20
2022-10-07T06:58:43.985Z,2.43
2022-10-07T06:59:17.896Z,2.50
2022-10-07T07:00:04.941Z,2.20
2022-10-07T07:00:37.824Z,2.10
2022-10-07T07:01:10.591Z,1.90
2022-10-07T07:01:42.649Z,2.10
2022-10-07T07:02:15.312Z,2.20
2022-10-07T07:02:47.652Z,2.27
2022-10-07T07:03:20.261Z,2.00
2022-10-07T07:03:53.983Z,2.10
2022-10-07T07:04:26.678Z,2.13
2022-10-07T07:04:59.172Z,2.20
2022-10-07T07:05:35.295Z,2.10
2022-10-07T07:06:08.383Z,2.33
2022-10-07T07:06:40.509Z,2.00
2022-10-07T07:07:14.187Z,2.23
2022-10-07T07:07:46.474Z,2.23
2022-10-07T07:08:19.633Z,2.40
2022-10-07T07:08:51.702Z,2.13
2022-10-07T07:09:23.998Z,2.00
2022-10-07T07:09:57.979Z,2.00
2022-10-07T07:10:30.083Z,1.80
2022-10-07T07:11:26.575Z,2.37
2022-10-07T07:11:59.553Z,1.80
2022-10-07T07:12:37.600Z,1.83
2022-10-07T07:13:10.175Z,2.00
2022-10-07T07:13:45.279Z,1.80
2022-10-07T07:14:19.129Z,2.00
2022-10-07T07:14:57.145Z,1.90
2022-10-07T07:15:29.251Z,2.00
2022-10-07T07:16:01.472Z,1.90
2022-10-07T07:16:38.176Z,1.90
2022-10-07T07:17:11.231Z,1.83
2022-10-07T07:17:43.604Z,1.80
2022-10-07T07:18:16.965Z,2.27
2022-10-07T07:18:53.113Z,2.40
2022-10-07T07:19:26.012Z,2.10
2022-10-07T07:19:58.729Z,2.30
2022-10-07T07:20:35.724Z,1.93
2022-10-07T07:21:08.092Z,1.97
2022-10-07T07:21:41.085Z,1.83
2022-10-07T07:22:15.780Z,1.80
2022-10-07T07:22:49.488Z,1.80
2022-10-07T07:23:21.526Z,1.80
2022-10-07T07:23:53.505Z,2.00
2022-10-07T07:24:25.531Z,1.93
2022-10-07T07:24:57.946Z,1.60
2022-10-07T07:25:32.009Z,2.10
2022-10-07T07:26:04.046Z,1.63
2022-10-07T07:26:37.823Z,2.63
2022-10-07T07:27:09.810Z,2.00
2022-10-07T07:27:42.363Z,2.27
2022-10-07T07:28:15.774Z,2.03
2022-10-07T07:28:55.071Z,1.77
2022-10-07T07:29:27.493Z,1.47
2022-10-07T07:30:03.546Z,2.13
2022-10-07T07:30:38.362Z,2.17
2022-10-07T07:31:12.761Z,2.17
2022-10-07T07:31:44.848Z,2.30
2022-10-07T07:32:17.859Z,1.70
2022-10-07T07:32:51.021Z,2.03
2022-10-07T07:33:23.011Z,1.70
2022-10-07T07:33:55.922Z,1.63
2022-10-07T07:34:29.566Z,2.17
2022-10-07T07:35:04.565Z,2.10
2022-10-07T07:35:38.446Z,1.90
2022-10-07T07:36:15.897Z,2.00
2022-10-07T07:36:53.471Z,1.90
2022-10-07T07:37:30.205Z,2.20
2022-10-07T07:38:02.583Z,1.73
2022-10-07T07:38:35.869Z,1.90
2022-10-07T07:39:09.196Z,1.87
2022-10-07T07:39:42.698Z,2.20
2022-10-07T07:40:18.518Z,2.27
2022-10-07T07:40:53.463Z,1.90
2022-10-07T07:41:29.775Z,1.80
2022-10-07T07:42:02.475Z,2.00
2022-10-07T07:42:34.937Z,1.87
2022-10-07T07:43:07.114Z,1.70
2022-10-07T07:43:39.187Z,1.87